sensor_id;sensor_type;location;lat;lon;timestamp;P1;durP1;ratioP1;P2;durP2;ratioP2
13693;SDS011;6919;52.344;14.518;2024-03-08T00:01:11;31.07;;;19.43;;
13693;SDS011;6919;52.344;14.518;2024-03-08T00:03:39;28.77;;;16.90;;
13693;SDS011;6919;52.344;14.518;2024-03-08T00:06:07;29.27;;;17.17;;
13693;SDS011;6919;52.344;14.518;2024-03-08T00:08:36;25.80;;;16.50;;
13693;SDS011;6919;52.344;14.518;2024-03-08T00:11:05;27.53;;;16.43;;
13693;SDS011;6919;52.344;14.518;2024-03-08T00:13:34;26.17;;;15.67;;
13693;SDS011;6919;52.344;14.518;2024-03-08T00:16:03;28.30;;;16.43;;
13693;SDS011;6919;52.344;14.518;2024-03-08T00:18:32;26.10;;;16.20;;
13693;SDS011;6919;52.344;14.518;2024-03-08T00:21:00;26.40;;;14.83;;
13693;SDS011;6919;52.344;14.518;2024-03-08T00:23:29;23.90;;;14.47;;
13693;SDS011;6919;52.344;14.518;2024-03-08T00:25:59;24.23;;;14.60;;
13693;SDS011;6919;52.344;14.518;2024-03-08T00:28:31;24.27;;;13.83;;
13693;SDS011;6919;52.344;14.518;2024-03-08T00:31:00;24.03;;;13.90;;
13693;SDS011;6919;52.344;14.518;2024-03-08T00:33:28;21.30;;;13.00;;
13693;SDS011;6919;52.344;14.518;2024-03-08T00:35:57;25.13;;;14.00;;
13693;SDS011;6919;52.344;14.518;2024-03-08T00:38:25;26.43;;;13.53;;
13693;SDS011;6919;52.344;14.518;2024-03-08T00:40:54;31.23;;;14.97;;
13693;SDS011;6919;52.344;14.518;2024-03-08T00:43:23;21.60;;;13.20;;
13693;SDS011;6919;52.344;14.518;2024-03-08T00:45:53;26.83;;;14.73;;
13693;SDS011;6919;52.344;14.518;2024-03-08T00:48:22;28.00;;;14.80;;
13693;SDS011;6919;52.344;14.518;2024-03-08T00:50:50;22.87;;;14.47;;
13693;SDS011;6919;52.344;14.518;2024-03-08T00:53:19;25.70;;;14.83;;
13693;SDS011;6919;52.344;14.518;2024-03-08T00:55:47;23.63;;;13.53;;
13693;SDS011;6919;52.344;14.518;2024-03-08T00:58:15;23.77;;;14.53;;
13693;SDS011;6919;52.344;14.518;2024-03-08T01:00:43;25.27;;;13.53;;
13693;SDS011;6919;52.344;14.518;2024-03-08T01:03:13;29.13;;;16.93;;
13693;SDS011;6919;52.344;14.518;2024-03-08T01:05:41;32.67;;;17.67;;
13693;SDS011;6919;52.344;14.518;2024-03-08T01:08:10;24.77;;;14.33;;
13693;SDS011;6919;52.344;14.518;2024-03-08T01:10:38;31.30;;;14.63;;
13693;SDS011;6919;52.344;14.518;2024-03-08T01:13:06;26.13;;;13.93;;
13693;SDS011;6919;52.344;14.518;2024-03-08T01:15:35;23.77;;;15.43;;
13693;SDS011;6919;52.344;14.518;2024-03-08T01:18:07;23.03;;;14.47;;
13693;SDS011;6919;52.344;14.518;2024-03-08T01:20:37;28.70;;;14.50;;
13693;SDS011;6919;52.344;14.518;2024-03-08T01:23:06;25.70;;;13.60;;
13693;SDS011;6919;52.344;14.518;2024-03-08T01:25:34;31.27;;;14.57;;
13693;SDS011;6919;52.344;14.518;2024-03-08T01:28:03;21.93;;;13.40;;
13693;SDS011;6919;52.344;14.518;2024-03-08T01:30:33;27.13;;;15.40;;
13693;SDS011;6919;52.344;14.518;2024-03-08T01:33:03;30.10;;;17.03;;
13693;SDS011;6919;52.344;14.518;2024-03-08T01:35:32;35.10;;;17.30;;
13693;SDS011;6919;52.344;14.518;2024-03-08T01:38:02;35.33;;;17.93;;
13693;SDS011;6919;52.344;14.518;2024-03-08T01:40:31;31.43;;;15.93;;
13693;SDS011;6919;52.344;14.518;2024-03-08T01:45:45;25.93;;;14.73;;
13693;SDS011;6919;52.344;14.518;2024-03-08T01:48:14;27.27;;;15.30;;
13693;SDS011;6919;52.344;14.518;2024-03-08T01:50:45;34.00;;;14.87;;
13693;SDS011;6919;52.344;14.518;2024-03-08T01:53:15;27.67;;;15.67;;
13693;SDS011;6919;52.344;14.518;2024-03-08T01:55:46;25.57;;;14.10;;
13693;SDS011;6919;52.344;14.518;2024-03-08T01:58:17;23.23;;;13.83;;
13693;SDS011;6919;52.344;14.518;2024-03-08T02:00:48;25.73;;;15.10;;
13693;SDS011;6919;52.344;14.518;2024-03-08T02:03:17;25.60;;;14.77;;
13693;SDS011;6919;52.344;14.518;2024-03-08T02:05:45;24.80;;;14.30;;
13693;SDS011;6919;52.344;14.518;2024-03-08T02:08:15;25.07;;;14.43;;
13693;SDS011;6919;52.344;14.518;2024-03-08T02:10:44;26.10;;;14.30;;
13693;SDS011;6919;52.344;14.518;2024-03-08T02:13:12;29.20;;;16.30;;
13693;SDS011;6919;52.344;14.518;2024-03-08T02:15:51;35.17;;;18.10;;
13693;SDS011;6919;52.344;14.518;2024-03-08T02:18:21;28.87;;;17.07;;
13693;SDS011;6919;52.344;14.518;2024-03-08T02:20:52;27.30;;;15.83;;
13693;SDS011;6919;52.344;14.518;2024-03-08T02:23:21;22.97;;;14.17;;
13693;SDS011;6919;52.344;14.518;2024-03-08T02:25:51;24.27;;;14.87;;
13693;SDS011;6919;52.344;14.518;2024-03-08T02:28:20;26.53;;;13.67;;
13693;SDS011;6919;52.344;14.518;2024-03-08T02:30:49;24.47;;;14.03;;
13693;SDS011;6919;52.344;14.518;2024-03-08T02:33:21;26.17;;;15.23;;
13693;SDS011;6919;52.344;14.518;2024-03-08T02:35:51;27.70;;;14.87;;
13693;SDS011;6919;52.344;14.518;2024-03-08T02:38:21;26.60;;;14.20;;
13693;SDS011;6919;52.344;14.518;2024-03-08T02:40:52;30.57;;;16.30;;
13693;SDS011;6919;52.344;14.518;2024-03-08T02:43:21;32.37;;;14.37;;
13693;SDS011;6919;52.344;14.518;2024-03-08T02:45:51;26.40;;;14.57;;
13693;SDS011;6919;52.344;14.518;2024-03-08T02:48:20;27.47;;;14.50;;
13693;SDS011;6919;52.344;14.518;2024-03-08T02:50:49;36.90;;;15.00;;
13693;SDS011;6919;52.344;14.518;2024-03-08T02:53:19;25.80;;;13.43;;
13693;SDS011;6919;52.344;14.518;2024-03-08T02:55:48;26.87;;;15.67;;
13693;SDS011;6919;52.344;14.518;2024-03-08T02:58:16;26.90;;;14.03;;
13693;SDS011;6919;52.344;14.518;2024-03-08T03:00:45;29.27;;;14.90;;
13693;SDS011;6919;52.344;14.518;2024-03-08T03:03:13;30.40;;;15.43;;
13693;SDS011;6919;52.344;14.518;2024-03-08T03:05:41;33.53;;;15.77;;
13693;SDS011;6919;52.344;14.518;2024-03-08T03:08:14;29.40;;;15.67;;
13693;SDS011;6919;52.344;14.518;2024-03-08T03:10:45;33.43;;;16.30;;
13693;SDS011;6919;52.344;14.518;2024-03-08T03:13:13;27.57;;;15.37;;
13693;SDS011;6919;52.344;14.518;2024-03-08T03:15:42;29.17;;;15.43;;
13693;SDS011;6919;52.344;14.518;2024-03-08T03:18:10;28.37;;;15.90;;
13693;SDS011;6919;52.344;14.518;2024-03-08T03:20:39;37.37;;;18.90;;
13693;SDS011;6919;52.344;14.518;2024-03-08T03:23:09;27.80;;;16.03;;
13693;SDS011;6919;52.344;14.518;2024-03-08T03:25:41;29.33;;;17.13;;
13693;SDS011;6919;52.344;14.518;2024-03-08T03:28:11;30.03;;;16.50;;
13693;SDS011;6919;52.344;14.518;2024-03-08T03:30:41;31.33;;;16.43;;
13693;SDS011;6919;52.344;14.518;2024-03-08T03:33:10;33.83;;;16.70;;
13693;SDS011;6919;52.344;14.518;2024-03-08T03:35:39;29.00;;;16.13;;
13693;SDS011;6919;52.344;14.518;2024-03-08T03:38:09;31.63;;;16.87;;
13693;SDS011;6919;52.344;14.518;2024-03-08T03:40:37;32.43;;;15.80;;
13693;SDS011;6919;52.344;14.518;2024-03-08T03:43:06;27.80;;;16.30;;
13693;SDS011;6919;52.344;14.518;2024-03-08T03:45:38;26.30;;;15.00;;
13693;SDS011;6919;52.344;14.518;2024-03-08T03:48:08;28.63;;;15.43;;
13693;SDS011;6919;52.344;14.518;2024-03-08T03:50:37;26.13;;;15.37;;
13693;SDS011;6919;52.344;14.518;2024-03-08T03:53:07;28.27;;;16.33;;
13693;SDS011;6919;52.344;14.518;2024-03-08T03:55:37;27.53;;;16.13;;
13693;SDS011;6919;52.344;14.518;2024-03-08T03:58:07;30.90;;;14.57;;
13693;SDS011;6919;52.344;14.518;2024-03-08T04:00:39;29.03;;;14.87;;
13693;SDS011;6919;52.344;14.518;2024-03-08T04:03:07;29.23;;;15.50;;
13693;SDS011;6919;52.344;14.518;2024-03-08T04:05:36;28.20;;;14.93;;
13693;SDS011;6919;52.344;14.518;2024-03-08T04:08:04;26.77;;;14.30;;
13693;SDS011;6919;52.344;14.518;2024-03-08T04:10:33;29.33;;;16.17;;
13693;SDS011;6919;52.344;14.518;2024-03-08T04:13:01;25.43;;;14.30;;
13693;SDS011;6919;52.344;14.518;2024-03-08T04:15:30;32.80;;;17.80;;
13693;SDS011;6919;52.344;14.518;2024-03-08T04:17:59;27.67;;;15.30;;
13693;SDS011;6919;52.344;14.518;2024-03-08T04:20:28;29.87;;;15.23;;
13693;SDS011;6919;52.344;14.518;2024-03-08T04:22:56;31.13;;;15.07;;
13693;SDS011;6919;52.344;14.518;2024-03-08T04:25:25;28.00;;;16.13;;
13693;SDS011;6919;52.344;14.518;2024-03-08T04:27:53;32.03;;;14.90;;
13693;SDS011;6919;52.344;14.518;2024-03-08T04:30:21;25.63;;;14.53;;
13693;SDS011;6919;52.344;14.518;2024-03-08T04:32:50;29.47;;;15.57;;
13693;SDS011;6919;52.344;14.518;2024-03-08T04:35:20;30.77;;;16.50;;
13693;SDS011;6919;52.344;14.518;2024-03-08T04:37:49;28.63;;;16.40;;
13693;SDS011;6919;52.344;14.518;2024-03-08T04:40:17;30.30;;;16.10;;
13693;SDS011;6919;52.344;14.518;2024-03-08T04:42:45;27.97;;;16.37;;
13693;SDS011;6919;52.344;14.518;2024-03-08T04:45:17;24.63;;;14.80;;
13693;SDS011;6919;52.344;14.518;2024-03-08T04:47:46;27.93;;;15.53;;
13693;SDS011;6919;52.344;14.518;2024-03-08T04:50:14;28.77;;;15.70;;
13693;SDS011;6919;52.344;14.518;2024-03-08T04:52:44;31.00;;;17.17;;
13693;SDS011;6919;52.344;14.518;2024-03-08T04:55:12;27.07;;;14.97;;
13693;SDS011;6919;52.344;14.518;2024-03-08T04:57:40;31.63;;;16.13;;
13693;SDS011;6919;52.344;14.518;2024-03-08T05:00:10;29.67;;;16.30;;
13693;SDS011;6919;52.344;14.518;2024-03-08T05:02:41;30.03;;;16.37;;
13693;SDS011;6919;52.344;14.518;2024-03-08T05:05:10;37.00;;;16.03;;
13693;SDS011;6919;52.344;14.518;2024-03-08T05:07:39;37.20;;;17.60;;
13693;SDS011;6919;52.344;14.518;2024-03-08T05:10:09;27.87;;;16.47;;
13693;SDS011;6919;52.344;14.518;2024-03-08T05:12:37;32.70;;;17.33;;
13693;SDS011;6919;52.344;14.518;2024-03-08T05:15:06;26.23;;;15.70;;
13693;SDS011;6919;52.344;14.518;2024-03-08T05:17:35;27.90;;;15.73;;
13693;SDS011;6919;52.344;14.518;2024-03-08T05:20:04;31.60;;;17.27;;
13693;SDS011;6919;52.344;14.518;2024-03-08T05:22:34;30.80;;;17.60;;
13693;SDS011;6919;52.344;14.518;2024-03-08T05:25:03;33.63;;;17.43;;
13693;SDS011;6919;52.344;14.518;2024-03-08T05:27:35;37.10;;;18.27;;
13693;SDS011;6919;52.344;14.518;2024-03-08T05:30:04;31.40;;;17.17;;
13693;SDS011;6919;52.344;14.518;2024-03-08T05:32:34;40.33;;;18.10;;
13693;SDS011;6919;52.344;14.518;2024-03-08T05:35:04;34.07;;;16.40;;
13693;SDS011;6919;52.344;14.518;2024-03-08T05:37:33;36.20;;;17.90;;
13693;SDS011;6919;52.344;14.518;2024-03-08T05:40:01;37.80;;;16.60;;
13693;SDS011;6919;52.344;14.518;2024-03-08T05:42:42;30.90;;;15.47;;
13693;SDS011;6919;52.344;14.518;2024-03-08T05:45:11;29.07;;;16.47;;
13693;SDS011;6919;52.344;14.518;2024-03-08T05:47:40;36.07;;;17.33;;
13693;SDS011;6919;52.344;14.518;2024-03-08T05:50:09;35.70;;;16.40;;
13693;SDS011;6919;52.344;14.518;2024-03-08T05:52:38;34.37;;;16.13;;
13693;SDS011;6919;52.344;14.518;2024-03-08T05:55:06;37.23;;;16.77;;
13693;SDS011;6919;52.344;14.518;2024-03-08T05:57:36;40.47;;;19.60;;
13693;SDS011;6919;52.344;14.518;2024-03-08T06:00:08;32.87;;;18.87;;
13693;SDS011;6919;52.344;14.518;2024-03-08T06:02:38;41.27;;;18.53;;
13693;SDS011;6919;52.344;14.518;2024-03-08T06:05:08;34.30;;;17.30;;
13693;SDS011;6919;52.344;14.518;2024-03-08T06:07:37;30.43;;;16.57;;
13693;SDS011;6919;52.344;14.518;2024-03-08T06:10:07;35.83;;;15.83;;
13693;SDS011;6919;52.344;14.518;2024-03-08T06:12:39;36.60;;;18.77;;
13693;SDS011;6919;52.344;14.518;2024-03-08T06:15:09;38.13;;;16.93;;
13693;SDS011;6919;52.344;14.518;2024-03-08T06:17:41;36.80;;;18.37;;
13693;SDS011;6919;52.344;14.518;2024-03-08T06:20:10;29.70;;;17.07;;
13693;SDS011;6919;52.344;14.518;2024-03-08T06:22:40;36.33;;;17.27;;
13693;SDS011;6919;52.344;14.518;2024-03-08T06:25:08;34.60;;;19.33;;
13693;SDS011;6919;52.344;14.518;2024-03-08T06:27:40;35.80;;;17.60;;
13693;SDS011;6919;52.344;14.518;2024-03-08T06:30:11;30.33;;;16.70;;
13693;SDS011;6919;52.344;14.518;2024-03-08T06:32:42;36.27;;;18.87;;
13693;SDS011;6919;52.344;14.518;2024-03-08T06:35:10;38.80;;;18.10;;
13693;SDS011;6919;52.344;14.518;2024-03-08T06:37:40;34.30;;;17.97;;
13693;SDS011;6919;52.344;14.518;2024-03-08T06:40:10;33.50;;;18.60;;
13693;SDS011;6919;52.344;14.518;2024-03-08T06:42:41;34.03;;;18.53;;
13693;SDS011;6919;52.344;14.518;2024-03-08T06:45:11;45.03;;;21.47;;
13693;SDS011;6919;52.344;14.518;2024-03-08T06:47:41;53.13;;;23.63;;
13693;SDS011;6919;52.344;14.518;2024-03-08T06:50:10;39.33;;;23.27;;
13693;SDS011;6919;52.344;14.518;2024-03-08T06:52:39;41.03;;;21.83;;
13693;SDS011;6919;52.344;14.518;2024-03-08T06:55:08;40.50;;;20.83;;
13693;SDS011;6919;52.344;14.518;2024-03-08T06:57:38;36.37;;;20.73;;
13693;SDS011;6919;52.344;14.518;2024-03-08T07:00:08;35.33;;;21.23;;
13693;SDS011;6919;52.344;14.518;2024-03-08T07:02:45;40.90;;;21.17;;
13693;SDS011;6919;52.344;14.518;2024-03-08T07:05:15;36.80;;;20.57;;
13693;SDS011;6919;52.344;14.518;2024-03-08T07:07:44;45.17;;;22.33;;
13693;SDS011;6919;52.344;14.518;2024-03-08T07:10:14;42.97;;;20.10;;
13693;SDS011;6919;52.344;14.518;2024-03-08T07:12:43;37.23;;;22.47;;
13693;SDS011;6919;52.344;14.518;2024-03-08T07:15:14;36.33;;;19.33;;
13693;SDS011;6919;52.344;14.518;2024-03-08T07:17:46;40.90;;;20.47;;
13693;SDS011;6919;52.344;14.518;2024-03-08T07:20:15;40.43;;;20.43;;
13693;SDS011;6919;52.344;14.518;2024-03-08T07:22:45;39.70;;;20.53;;
13693;SDS011;6919;52.344;14.518;2024-03-08T07:25:17;42.63;;;21.17;;
13693;SDS011;6919;52.344;14.518;2024-03-08T07:27:48;38.77;;;20.50;;
13693;SDS011;6919;52.344;14.518;2024-03-08T07:30:19;37.20;;;20.00;;
13693;SDS011;6919;52.344;14.518;2024-03-08T07:33:06;37.53;;;19.80;;
13693;SDS011;6919;52.344;14.518;2024-03-08T07:35:42;32.73;;;19.13;;
13693;SDS011;6919;52.344;14.518;2024-03-08T07:38:17;35.53;;;20.00;;
13693;SDS011;6919;52.344;14.518;2024-03-08T07:40:49;32.33;;;18.43;;
13693;SDS011;6919;52.344;14.518;2024-03-08T07:43:17;33.20;;;20.23;;
13693;SDS011;6919;52.344;14.518;2024-03-08T07:45:47;37.17;;;20.33;;
13693;SDS011;6919;52.344;14.518;2024-03-08T07:48:15;37.27;;;20.03;;
13693;SDS011;6919;52.344;14.518;2024-03-08T07:50:44;34.57;;;19.30;;
13693;SDS011;6919;52.344;14.518;2024-03-08T07:53:12;38.37;;;21.03;;
13693;SDS011;6919;52.344;14.518;2024-03-08T07:55:41;38.13;;;21.07;;
13693;SDS011;6919;52.344;14.518;2024-03-08T07:58:11;34.23;;;21.43;;
13693;SDS011;6919;52.344;14.518;2024-03-08T08:00:39;36.03;;;19.97;;
13693;SDS011;6919;52.344;14.518;2024-03-08T08:03:10;40.50;;;21.73;;
13693;SDS011;6919;52.344;14.518;2024-03-08T08:05:39;41.47;;;22.67;;
13693;SDS011;6919;52.344;14.518;2024-03-08T08:08:08;40.40;;;21.97;;
13693;SDS011;6919;52.344;14.518;2024-03-08T08:10:38;41.20;;;22.47;;
13693;SDS011;6919;52.344;14.518;2024-03-08T08:13:06;42.77;;;22.13;;
13693;SDS011;6919;52.344;14.518;2024-03-08T08:15:34;43.13;;;21.00;;
13693;SDS011;6919;52.344;14.518;2024-03-08T08:18:03;39.93;;;21.00;;
13693;SDS011;6919;52.344;14.518;2024-03-08T08:20:34;40.93;;;21.57;;
13693;SDS011;6919;52.344;14.518;2024-03-08T08:23:03;39.17;;;21.80;;
13693;SDS011;6919;52.344;14.518;2024-03-08T08:25:32;36.73;;;21.53;;
13693;SDS011;6919;52.344;14.518;2024-03-08T08:28:01;42.57;;;22.10;;
13693;SDS011;6919;52.344;14.518;2024-03-08T08:30:31;37.47;;;22.43;;
13693;SDS011;6919;52.344;14.518;2024-03-08T08:33:00;40.60;;;21.03;;
13693;SDS011;6919;52.344;14.518;2024-03-08T08:35:29;37.00;;;20.97;;
13693;SDS011;6919;52.344;14.518;2024-03-08T08:37:58;38.77;;;20.53;;
13693;SDS011;6919;52.344;14.518;2024-03-08T08:40:27;40.70;;;21.10;;
13693;SDS011;6919;52.344;14.518;2024-03-08T08:42:57;42.77;;;20.57;;
13693;SDS011;6919;52.344;14.518;2024-03-08T08:45:26;41.03;;;21.80;;
13693;SDS011;6919;52.344;14.518;2024-03-08T08:47:54;34.13;;;19.57;;
13693;SDS011;6919;52.344;14.518;2024-03-08T08:50:23;38.50;;;20.07;;
13693;SDS011;6919;52.344;14.518;2024-03-08T08:52:52;38.27;;;20.17;;
13693;SDS011;6919;52.344;14.518;2024-03-08T08:55:22;33.20;;;19.20;;
13693;SDS011;6919;52.344;14.518;2024-03-08T08:57:53;27.60;;;15.50;;
13693;SDS011;6919;52.344;14.518;2024-03-08T09:00:22;29.10;;;14.40;;
13693;SDS011;6919;52.344;14.518;2024-03-08T09:02:54;26.73;;;15.20;;
13693;SDS011;6919;52.344;14.518;2024-03-08T09:05:24;18.57;;;12.63;;
13693;SDS011;6919;52.344;14.518;2024-03-08T09:07:53;21.73;;;12.40;;
13693;SDS011;6919;52.344;14.518;2024-03-08T09:10:24;20.37;;;12.10;;
13693;SDS011;6919;52.344;14.518;2024-03-08T09:12:56;22.10;;;12.30;;
13693;SDS011;6919;52.344;14.518;2024-03-08T09:15:26;21.23;;;12.13;;
13693;SDS011;6919;52.344;14.518;2024-03-08T09:17:55;21.30;;;12.20;;
13693;SDS011;6919;52.344;14.518;2024-03-08T09:20:23;21.53;;;13.07;;
13693;SDS011;6919;52.344;14.518;2024-03-08T09:22:52;23.20;;;12.67;;
13693;SDS011;6919;52.344;14.518;2024-03-08T09:25:21;17.93;;;11.87;;
13693;SDS011;6919;52.344;14.518;2024-03-08T09:27:51;21.33;;;12.13;;
13693;SDS011;6919;52.344;14.518;2024-03-08T09:30:20;18.27;;;11.93;;
13693;SDS011;6919;52.344;14.518;2024-03-08T09:32:50;18.83;;;11.60;;
13693;SDS011;6919;52.344;14.518;2024-03-08T09:35:19;18.60;;;11.50;;
13693;SDS011;6919;52.344;14.518;2024-03-08T09:37:48;19.57;;;12.40;;
13693;SDS011;6919;52.344;14.518;2024-03-08T09:40:18;20.47;;;12.03;;
13693;SDS011;6919;52.344;14.518;2024-03-08T09:42:48;20.13;;;11.80;;
13693;SDS011;6919;52.344;14.518;2024-03-08T09:45:19;19.37;;;12.03;;
13693;SDS011;6919;52.344;14.518;2024-03-08T09:47:50;19.20;;;10.33;;
13693;SDS011;6919;52.344;14.518;2024-03-08T09:50:19;16.13;;;10.73;;
13693;SDS011;6919;52.344;14.518;2024-03-08T09:52:48;20.13;;;11.03;;
13693;SDS011;6919;52.344;14.518;2024-03-08T09:55:17;14.80;;;9.43;;
13693;SDS011;6919;52.344;14.518;2024-03-08T09:57:51;16.37;;;9.97;;
13693;SDS011;6919;52.344;14.518;2024-03-08T10:00:35;17.57;;;10.40;;
13693;SDS011;6919;52.344;14.518;2024-03-08T10:03:04;19.43;;;10.63;;
13693;SDS011;6919;52.344;14.518;2024-03-08T10:05:33;14.97;;;9.57;;
13693;SDS011;6919;52.344;14.518;2024-03-08T10:08:01;20.63;;;10.60;;
13693;SDS011;6919;52.344;14.518;2024-03-08T10:10:31;19.13;;;11.40;;
13693;SDS011;6919;52.344;14.518;2024-03-08T10:13:02;19.20;;;10.93;;
13693;SDS011;6919;52.344;14.518;2024-03-08T10:15:33;19.10;;;11.27;;
13693;SDS011;6919;52.344;14.518;2024-03-08T10:18:05;17.13;;;10.93;;
13693;SDS011;6919;52.344;14.518;2024-03-08T10:20:37;17.63;;;10.83;;
13693;SDS011;6919;52.344;14.518;2024-03-08T10:23:05;18.83;;;10.63;;
13693;SDS011;6919;52.344;14.518;2024-03-08T10:25:37;19.60;;;11.03;;
13693;SDS011;6919;52.344;14.518;2024-03-08T10:28:07;18.23;;;10.87;;
13693;SDS011;6919;52.344;14.518;2024-03-08T10:30:36;17.30;;;10.03;;
13693;SDS011;6919;52.344;14.518;2024-03-08T10:33:04;16.57;;;10.90;;
13693;SDS011;6919;52.344;14.518;2024-03-08T10:35:33;16.50;;;10.23;;
13693;SDS011;6919;52.344;14.518;2024-03-08T10:38:01;18.93;;;9.50;;
13693;SDS011;6919;52.344;14.518;2024-03-08T10:40:38;17.93;;;9.30;;
13693;SDS011;6919;52.344;14.518;2024-03-08T10:43:11;16.53;;;8.60;;
13693;SDS011;6919;52.344;14.518;2024-03-08T10:45:57;13.97;;;9.33;;
13693;SDS011;6919;52.344;14.518;2024-03-08T10:48:49;15.63;;;9.07;;
13693;SDS011;6919;52.344;14.518;2024-03-08T10:51:23;14.90;;;8.60;;
13693;SDS011;6919;52.344;14.518;2024-03-08T10:53:52;14.67;;;9.00;;
13693;SDS011;6919;52.344;14.518;2024-03-08T10:56:24;17.33;;;8.67;;
13693;SDS011;6919;52.344;14.518;2024-03-08T10:58:55;16.97;;;9.70;;
13693;SDS011;6919;52.344;14.518;2024-03-08T11:01:24;16.63;;;9.13;;
13693;SDS011;6919;52.344;14.518;2024-03-08T11:03:53;16.07;;;8.50;;
13693;SDS011;6919;52.344;14.518;2024-03-08T11:06:23;16.43;;;9.23;;
13693;SDS011;6919;52.344;14.518;2024-03-08T11:09:08;17.57;;;8.53;;
13693;SDS011;6919;52.344;14.518;2024-03-08T11:14:49;16.40;;;8.23;;
13693;SDS011;6919;52.344;14.518;2024-03-08T11:20:14;13.83;;;8.77;;
13693;SDS011;6919;52.344;14.518;2024-03-08T11:22:50;12.60;;;8.40;;
13693;SDS011;6919;52.344;14.518;2024-03-08T11:25:30;12.40;;;8.23;;
13693;SDS011;6919;52.344;14.518;2024-03-08T11:28:10;12.87;;;8.20;;
13693;SDS011;6919;52.344;14.518;2024-03-08T11:30:47;15.00;;;8.60;;
13693;SDS011;6919;52.344;14.518;2024-03-08T11:33:51;16.93;;;8.73;;
13693;SDS011;6919;52.344;14.518;2024-03-08T11:36:21;13.17;;;7.83;;
13693;SDS011;6919;52.344;14.518;2024-03-08T11:38:51;13.67;;;7.70;;
13693;SDS011;6919;52.344;14.518;2024-03-08T11:41:23;15.33;;;8.30;;
13693;SDS011;6919;52.344;14.518;2024-03-08T11:44:01;12.57;;;8.03;;
13693;SDS011;6919;52.344;14.518;2024-03-08T11:46:34;12.37;;;7.27;;
13693;SDS011;6919;52.344;14.518;2024-03-08T11:49:02;10.03;;;7.17;;
13693;SDS011;6919;52.344;14.518;2024-03-08T11:51:32;10.37;;;6.90;;
13693;SDS011;6919;52.344;14.518;2024-03-08T11:54:01;12.43;;;7.13;;
13693;SDS011;6919;52.344;14.518;2024-03-08T11:56:30;13.70;;;7.50;;
13693;SDS011;6919;52.344;14.518;2024-03-08T11:58:58;12.70;;;7.50;;
13693;SDS011;6919;52.344;14.518;2024-03-08T12:01:28;11.00;;;6.90;;
13693;SDS011;6919;52.344;14.518;2024-03-08T12:03:59;12.13;;;7.77;;
13693;SDS011;6919;52.344;14.518;2024-03-08T12:06:35;10.10;;;6.67;;
13693;SDS011;6919;52.344;14.518;2024-03-08T12:09:10;11.17;;;7.03;;
13693;SDS011;6919;52.344;14.518;2024-03-08T12:11:39;11.30;;;6.97;;
13693;SDS011;6919;52.344;14.518;2024-03-08T12:14:09;13.17;;;7.37;;
13693;SDS011;6919;52.344;14.518;2024-03-08T12:16:37;9.00;;;6.53;;
13693;SDS011;6919;52.344;14.518;2024-03-08T12:19:07;10.73;;;6.57;;
13693;SDS011;6919;52.344;14.518;2024-03-08T12:21:36;10.20;;;7.00;;
13693;SDS011;6919;52.344;14.518;2024-03-08T12:24:13;10.77;;;6.83;;
13693;SDS011;6919;52.344;14.518;2024-03-08T12:26:45;8.43;;;6.10;;
13693;SDS011;6919;52.344;14.518;2024-03-08T12:29:16;13.63;;;6.83;;
13693;SDS011;6919;52.344;14.518;2024-03-08T12:31:47;10.57;;;6.77;;
13693;SDS011;6919;52.344;14.518;2024-03-08T12:34:19;12.83;;;7.47;;
13693;SDS011;6919;52.344;14.518;2024-03-08T12:36:48;15.93;;;7.10;;
13693;SDS011;6919;52.344;14.518;2024-03-08T12:39:18;12.63;;;7.90;;
13693;SDS011;6919;52.344;14.518;2024-03-08T12:41:53;10.23;;;7.40;;
13693;SDS011;6919;52.344;14.518;2024-03-08T12:44:23;21.07;;;8.43;;
13693;SDS011;6919;52.344;14.518;2024-03-08T12:46:52;12.40;;;7.97;;
13693;SDS011;6919;52.344;14.518;2024-03-08T12:49:22;8.57;;;6.40;;
13693;SDS011;6919;52.344;14.518;2024-03-08T12:51:52;11.73;;;7.03;;
13693;SDS011;6919;52.344;14.518;2024-03-08T12:54:20;14.23;;;6.90;;
13693;SDS011;6919;52.344;14.518;2024-03-08T12:56:51;10.37;;;6.83;;
13693;SDS011;6919;52.344;14.518;2024-03-08T12:59:21;13.03;;;6.93;;
13693;SDS011;6919;52.344;14.518;2024-03-08T13:01:51;12.43;;;6.67;;
13693;SDS011;6919;52.344;14.518;2024-03-08T13:04:20;12.23;;;6.40;;
13693;SDS011;6919;52.344;14.518;2024-03-08T13:06:52;10.50;;;6.30;;
13693;SDS011;6919;52.344;14.518;2024-03-08T13:09:21;10.13;;;6.40;;
13693;SDS011;6919;52.344;14.518;2024-03-08T13:11:53;13.27;;;6.40;;
13693;SDS011;6919;52.344;14.518;2024-03-08T13:14:25;12.13;;;6.80;;
13693;SDS011;6919;52.344;14.518;2024-03-08T13:16:53;10.97;;;6.90;;
13693;SDS011;6919;52.344;14.518;2024-03-08T13:19:23;10.30;;;6.77;;
13693;SDS011;6919;52.344;14.518;2024-03-08T13:21:54;9.30;;;6.77;;
13693;SDS011;6919;52.344;14.518;2024-03-08T13:24:22;10.23;;;7.53;;
13693;SDS011;6919;52.344;14.518;2024-03-08T13:26:51;11.27;;;7.13;;
13693;SDS011;6919;52.344;14.518;2024-03-08T13:29:19;10.63;;;7.00;;
13693;SDS011;6919;52.344;14.518;2024-03-08T13:31:47;10.70;;;6.57;;
13693;SDS011;6919;52.344;14.518;2024-03-08T13:34:18;10.93;;;7.23;;
13693;SDS011;6919;52.344;14.518;2024-03-08T13:36:56;16.40;;;7.77;;
13693;SDS011;6919;52.344;14.518;2024-03-08T13:39:27;16.70;;;7.57;;
13693;SDS011;6919;52.344;14.518;2024-03-08T13:41:57;9.43;;;6.80;;
13693;SDS011;6919;52.344;14.518;2024-03-08T13:44:25;11.10;;;7.30;;
13693;SDS011;6919;52.344;14.518;2024-03-08T13:46:54;13.83;;;7.50;;
13693;SDS011;6919;52.344;14.518;2024-03-08T13:49:24;11.07;;;7.33;;
13693;SDS011;6919;52.344;14.518;2024-03-08T13:51:53;9.30;;;6.53;;
13693;SDS011;6919;52.344;14.518;2024-03-08T13:54:25;15.37;;;7.73;;
13693;SDS011;6919;52.344;14.518;2024-03-08T13:56:57;13.43;;;8.10;;
13693;SDS011;6919;52.344;14.518;2024-03-08T13:59:26;12.00;;;7.90;;
13693;SDS011;6919;52.344;14.518;2024-03-08T14:01:55;10.83;;;7.57;;
13693;SDS011;6919;52.344;14.518;2024-03-08T14:04:25;11.00;;;7.97;;
13693;SDS011;6919;52.344;14.518;2024-03-08T14:06:56;11.77;;;7.97;;
13693;SDS011;6919;52.344;14.518;2024-03-08T14:09:29;11.37;;;7.87;;
13693;SDS011;6919;52.344;14.518;2024-03-08T14:11:58;14.50;;;9.33;;
13693;SDS011;6919;52.344;14.518;2024-03-08T14:14:26;14.20;;;9.53;;
13693;SDS011;6919;52.344;14.518;2024-03-08T14:16:54;14.77;;;10.63;;
13693;SDS011;6919;52.344;14.518;2024-03-08T14:19:24;15.03;;;9.73;;
13693;SDS011;6919;52.344;14.518;2024-03-08T14:21:53;14.87;;;10.47;;
13693;SDS011;6919;52.344;14.518;2024-03-08T14:24:23;11.73;;;8.87;;
13693;SDS011;6919;52.344;14.518;2024-03-08T14:26:51;16.40;;;10.60;;
13693;SDS011;6919;52.344;14.518;2024-03-08T14:29:19;13.60;;;8.60;;
13693;SDS011;6919;52.344;14.518;2024-03-08T14:31:48;11.30;;;8.43;;
13693;SDS011;6919;52.344;14.518;2024-03-08T14:34:16;14.13;;;9.20;;
13693;SDS011;6919;52.344;14.518;2024-03-08T14:36:46;12.87;;;8.87;;
13693;SDS011;6919;52.344;14.518;2024-03-08T14:39:16;16.07;;;12.90;;
13693;SDS011;6919;52.344;14.518;2024-03-08T14:41:48;14.30;;;10.80;;
13693;SDS011;6919;52.344;14.518;2024-03-08T14:44:21;14.00;;;10.20;;
13693;SDS011;6919;52.344;14.518;2024-03-08T14:46:56;15.10;;;10.33;;
13693;SDS011;6919;52.344;14.518;2024-03-08T14:49:25;13.60;;;10.40;;
13693;SDS011;6919;52.344;14.518;2024-03-08T14:51:55;19.77;;;14.50;;